Time;durP1;ratioP1;P1;durP2;ratioP2;P2;SDS_P1;SDS_P2;PMS_P1;PMS_P2;Temp;Humidity;BMP_temperature;BMP_pressure;BME280_temperature;BME280_humidity;BME280_pressure;Samples;Min_cycle;Max_cycle;Signal;HPM_P1;HPM_P2
2021/09/12 00:00:48;;;;;;;0.30;0.28;;;16.60;99.90;;;;;;5051413;28;20177;-80
2021/09/12 00:03:14;;;;;;;0.35;0.28;;;16.60;99.90;;;;;;5051120;28;20197;-80
2021/09/12 00:05:40;;;;;;;3.78;1.17;;;16.70;99.90;;;;;;5068951;28;20161;-80
2021/09/12 00:08:06;;;;;;;2.30;0.98;;;16.70;99.90;;;;;;5050992;28;20177;-80
2021/09/12 00:10:32;;;;;;;1.17;0.35;;;16.90;99.90;;;;;;5068880;28;20227;-80
2021/09/12 00:12:58;;;;;;;3.03;1.75;;;17.10;99.90;;;;;;5052180;28;20189;-80
2021/09/12 00:15:24;;;;;;;0.82;0.82;;;17.00;99.90;;;;;;5069060;28;20156;-80
2021/09/12 00:17:51;;;;;;;6.03;1.10;;;17.10;99.90;;;;;;5051138;28;20160;-80
2021/09/12 00:20:17;;;;;;;0.45;0.45;;;17.10;99.90;;;;;;5068895;28;20171;-80
2021/09/12 00:22:43;;;;;;;1.23;1.13;;;17.10;99.90;;;;;;5050687;28;20283;-80
2021/09/12 00:25:09;;;;;;;1.88;0.40;;;17.00;99.90;;;;;;5050813;28;20173;-80
2021/09/12 00:27:36;;;;;;;2.08;1.00;;;16.90;99.90;;;;;;5050638;28;20188;-80
2021/09/12 00:30:03;;;;;;;0.43;0.43;;;17.00;99.90;;;;;;5050381;28;20256;-80
2021/09/12 00:32:29;;;;;;;0.30;0.30;;;16.90;99.90;;;;;;5067874;28;20218;-80
2021/09/12 00:34:54;;;;;;;1.08;0.63;;;16.90;99.90;;;;;;5068558;28;20626;-80
2021/09/12 00:37:20;;;;;;;0.73;0.45;;;16.80;99.90;;;;;;5068468;28;20193;-80
2021/09/12 00:39:46;;;;;;;0.88;0.88;;;16.70;99.90;;;;;;5068445;28;20187;-80
2021/09/12 00:42:12;;;;;;;2.75;0.63;;;16.60;99.90;;;;;;5068383;28;20192;-80
2021/09/12 00:44:38;;;;;;;2.03;0.77;;;16.50;99.90;;;;;;5050471;28;20233;-80
2021/09/12 00:47:12;;;;;;;0.65;0.47;;;16.40;99.90;;;;;;5050446;28;20197;-80
2021/09/12 00:49:39;;;;;;;1.40;1.30;;;16.40;99.90;;;;;;5046630;28;20232;-80
2021/09/12 00:52:08;;;;;;;0.88;0.75;;;16.50;99.90;;;;;;5048212;28;20201;-80
2021/09/12 00:54:37;;;;;;;0.10;0.10;;;16.50;99.90;;;;;;5047013;28;20193;-80
2021/09/12 00:57:08;;;;;;;0.65;0.50;;;16.40;99.90;;;;;;5046963;28;20180;-80
2021/09/12 00:59:41;;;;;;;2.42;1.42;;;16.20;99.90;;;;;;5063643;28;20271;-80
2021/09/12 01:02:09;;;;;;;0.20;0.20;;;16.10;99.90;;;;;;5046961;28;20204;-79
2021/09/12 01:04:36;;;;;;;0.10;0.10;;;16.20;99.90;;;;;;5063646;28;20176;-80
2021/09/12 01:07:05;;;;;;;0.40;0.40;;;16.50;99.90;;;;;;5047040;28;20158;-80
2021/09/12 01:09:33;;;;;;;0.93;0.77;;;16.50;99.90;;;;;;5048629;28;20223;-81
2021/09/12 01:12:01;;;;;;;0.40;0.40;;;16.60;99.90;;;;;;5046608;28;20189;-80
2021/09/12 01:14:29;;;;;;;0.50;0.50;;;16.60;99.90;;;;;;5047091;28;20169;-81
2021/09/12 01:16:56;;;;;;;0.75;0.75;;;16.50;99.90;;;;;;5047407;28;20165;-81
2021/09/12 01:19:23;;;;;;;0.98;0.98;;;16.10;99.90;;;;;;5048407;28;20164;-81
2021/09/12 01:21:55;;;;;;;0.65;0.52;;;16.10;99.90;;;;;;5047396;28;20196;-81
2021/09/12 01:24:22;;;;;;;0.10;0.10;;;16.10;99.90;;;;;;5048987;28;20180;-80
2021/09/12 01:26:47;;;;;;;1.08;0.35;;;16.30;99.90;;;;;;5047223;28;20180;-81
2021/09/12 01:29:16;;;;;;;0.10;0.10;;;16.20;99.90;;;;;;5046890;28;20161;-81
2021/09/12 01:31:43;;;;;;;0.95;0.68;;;16.30;99.90;;;;;;5048383;28;20201;-81
2021/09/12 01:34:09;;;;;;;0.70;0.70;;;16.40;99.90;;;;;;5063515;28;20251;-81
2021/09/12 01:36:36;;;;;;;0.40;0.40;;;16.40;99.90;;;;;;5048330;28;20154;-81
2021/09/12 01:39:04;;;;;;;0.43;0.43;;;16.10;99.90;;;;;;5048376;28;20158;-81
2021/09/12 01:41:31;;;;;;;0.40;0.30;;;16.20;99.90;;;;;;5048083;28;20162;-81
2021/09/12 01:43:59;;;;;;;1.60;0.65;;;16.10;99.90;;;;;;5048113;28;20224;-80
2021/09/12 01:46:26;;;;;;;1.20;1.02;;;16.10;99.90;;;;;;5051589;28;20162;-81
2021/09/12 01:48:54;;;;;;;2.08;1.00;;;16.00;99.90;;;;;;5052487;28;20161;-81
2021/09/12 01:51:20;;;;;;;0.73;0.73;;;16.00;99.90;;;;;;5071421;28;20281;-81
2021/09/12 01:53:47;;;;;;;0.10;0.10;;;15.80;99.90;;;;;;5071328;28;20196;-81
2021/09/12 01:56:14;;;;;;;0.20;0.20;;;15.70;99.90;;;;;;5051461;28;20165;-81
2021/09/12 01:58:40;;;;;;;1.38;0.60;;;15.80;99.90;;;;;;5051055;28;20160;-81
2021/09/12 02:01:07;;;;;;;0.40;0.30;;;15.90;99.90;;;;;;5050834;28;20165;-80
2021/09/12 02:03:33;;;;;;;0.95;0.47;;;15.70;99.90;;;;;;5051285;28;20189;-80
2021/09/12 02:06:00;;;;;;;0.73;0.73;;;15.50;99.90;;;;;;5069196;28;20262;-80
2021/09/12 02:08:26;;;;;;;0.55;0.35;;;15.60;99.90;;;;;;5069014;28;20677;-80
2021/09/12 02:10:52;;;;;;;0.68;0.68;;;15.70;99.90;;;;;;5069415;28;20191;-81
2021/09/12 02:13:19;;;;;;;0.63;0.63;;;15.70;99.90;;;;;;5071117;28;20247;-81
2021/09/12 02:15:44;;;;;;;1.20;0.50;;;15.70;99.90;;;;;;5071235;28;20606;-81
2021/09/12 02:18:11;;;;;;;0.10;0.10;;;15.60;99.90;;;;;;5053265;28;20175;-81
2021/09/12 02:20:38;;;;;;;0.85;0.68;;;15.70;99.90;;;;;;5053443;28;20173;-81
2021/09/12 02:23:05;;;;;;;2.45;1.50;;;15.60;99.90;;;;;;5053196;28;20173;-81
2021/09/12 02:25:32;;;;;;;0.17;0.17;;;15.30;99.90;;;;;;5053262;28;20625;-81
2021/09/12 02:27:57;;;;;;;0.17;0.15;;;15.40;99.90;;;;;;5053372;28;20267;-81
2021/09/12 02:30:24;;;;;;;0.75;0.75;;;15.30;99.90;;;;;;5070969;28;20184;-81
2021/09/12 02:32:50;;;;;;;0.38;0.38;;;15.40;99.90;;;;;;5052678;28;20219;-80
2021/09/12 02:35:15;;;;;;;0.38;0.38;;;15.50;99.90;;;;;;5070698;28;20200;-81
2021/09/12 02:37:41;;;;;;;0.20;0.20;;;15.20;99.90;;;;;;5052734;28;20164;-81
2021/09/12 02:40:08;;;;;;;0.40;0.40;;;15.00;99.90;;;;;;5070914;28;20323;-81
2021/09/12 02:42:33;;;;;;;0.55;0.52;;;14.90;99.90;;;;;;5070748;28;20161;-81
2021/09/12 02:44:59;;;;;;;0.28;0.28;;;15.10;99.90;;;;;;5055196;28;20200;-81
2021/09/12 02:47:25;;;;;;;1.65;1.13;;;15.00;99.90;;;;;;5053707;28;20202;-81
2021/09/12 02:49:51;;;;;;;0.63;0.63;;;15.10;99.90;;;;;;5070698;28;20224;-82
2021/09/12 02:52:17;;;;;;;0.52;0.52;;;15.40;99.90;;;;;;5070665;28;20179;-81
2021/09/12 02:54:43;;;;;;;0.30;0.30;;;15.40;99.90;;;;;;5052175;28;20200;-82
2021/09/12 02:57:09;;;;;;;0.43;0.43;;;15.50;99.90;;;;;;5070012;28;20169;-83
2021/09/12 02:59:35;;;;;;;0.45;0.45;;;15.50;99.90;;;;;;5052443;28;20176;-81
2021/09/12 03:02:01;;;;;;;6.63;0.60;;;15.60;99.90;;;;;;5070410;28;20187;-82
2021/09/12 03:04:27;;;;;;;0.55;0.55;;;15.50;99.90;;;;;;5052400;28;20197;-80
2021/09/12 03:06:53;;;;;;;0.57;0.52;;;15.50;99.90;;;;;;5052438;28;20184;-80
2021/09/12 03:09:18;;;;;;;0.28;0.28;;;15.20;99.90;;;;;;5052398;28;20203;-81
2021/09/12 03:11:45;;;;;;;0.90;0.70;;;15.30;99.90;;;;;;5070325;28;20195;-82
2021/09/12 03:14:11;;;;;;;1.38;1.23;;;15.40;99.90;;;;;;5052111;28;20277;-81
2021/09/12 03:16:37;;;;;;;0.28;0.28;;;15.00;99.90;;;;;;5052356;28;20331;-83
2021/09/12 03:19:03;;;;;;;0.47;0.47;;;14.80;99.90;;;;;;5070080;28;20543;-80
2021/09/12 03:21:29;;;;;;;0.43;0.43;;;15.00;99.90;;;;;;5069618;28;20196;-81
2021/09/12 03:23:55;;;;;;;0.60;0.60;;;15.00;99.90;;;;;;5051766;28;20196;-80
2021/09/12 03:26:21;;;;;;;1.30;0.80;;;15.00;99.90;;;;;;5051774;28;20181;-81
2021/09/12 03:28:47;;;;;;;0.60;0.60;;;15.10;99.90;;;;;;5051655;28;20176;-80
2021/09/12 03:31:13;;;;;;;0.20;0.20;;;14.90;99.90;;;;;;5051731;28;20196;-80
2021/09/12 03:33:39;;;;;;;0.30;0.30;;;15.10;99.90;;;;;;5051451;28;20192;-80
2021/09/12 03:36:05;;;;;;;0.32;0.32;;;15.10;99.90;;;;;;5051721;28;20251;-80
2021/09/12 03:38:31;;;;;;;0.45;0.45;;;15.20;99.90;;;;;;5069464;28;20222;-79
2021/09/12 03:40:58;;;;;;;0.47;0.40;;;15.20;99.90;;;;;;5069427;28;20172;-80
2021/09/12 03:43:24;;;;;;;0.28;0.28;;;15.30;99.90;;;;;;5051860;28;20226;-80
2021/09/12 03:45:50;;;;;;;0.65;0.65;;;15.30;99.90;;;;;;5051495;28;20236;-81
2021/09/12 03:48:16;;;;;;;0.85;0.82;;;15.30;99.90;;;;;;5051078;28;20172;-80
2021/09/12 03:50:42;;;;;;;0.52;0.47;;;15.30;99.90;;;;;;5047622;28;20320;-81
2021/09/12 03:53:08;;;;;;;0.82;0.52;;;15.10;99.90;;;;;;5051799;28;20212;-80
2021/09/12 03:55:34;;;;;;;0.43;0.43;;;15.00;99.90;;;;;;5051018;28;20165;-82
2021/09/12 03:58:00;;;;;;;1.25;0.68;;;15.10;99.90;;;;;;5050300;28;20170;-82
2021/09/12 04:00:26;;;;;;;0.52;0.52;;;15.10;99.90;;;;;;5047669;28;20170;-81
2021/09/12 04:02:52;;;;;;;0.40;0.40;;;15.10;99.90;;;;;;5049554;28;20188;-81
2021/09/12 04:05:18;;;;;;;0.65;0.65;;;15.10;99.90;;;;;;5048780;28;20200;-81
2021/09/12 04:07:43;;;;;;;0.20;0.20;;;15.10;99.90;;;;;;5047792;28;20158;-81
2021/09/12 04:10:10;;;;;;;0.25;0.22;;;15.10;99.90;;;;;;5048659;28;20265;-81
2021/09/12 04:12:36;;;;;;;2.25;1.25;;;15.10;99.90;;;;;;5048576;28;20161;-81
2021/09/12 04:15:02;;;;;;;0.30;0.30;;;15.10;99.90;;;;;;5048759;28;20240;-81
2021/09/12 04:17:28;;;;;;;0.10;0.10;;;15.10;99.90;;;;;;5047317;28;20169;-81
2021/09/12 04:19:53;;;;;;;0.63;0.63;;;15.10;99.90;;;;;;5064039;28;20173;-80
2021/09/12 04:22:19;;;;;;;0.20;0.20;;;15.10;99.90;;;;;;5048517;28;20172;-81
2021/09/12 04:24:45;;;;;;;0.20;0.20;;;15.10;99.90;;;;;;5047004;28;20232;-80
2021/09/12 04:27:11;;;;;;;1.10;0.40;;;15.10;99.90;;;;;;5047189;28;20193;-81
2021/09/12 04:29:37;;;;;;;0.17;0.17;;;15.00;99.90;;;;;;5063717;28;20169;-80
2021/09/12 04:32:04;;;;;;;2.08;1.95;;;14.70;99.90;;;;;;5046848;28;20208;-80
2021/09/12 04:34:30;;;;;;;1.65;1.45;;;14.80;99.90;;;;;;5063569;28;20258;-80
2021/09/12 04:36:56;;;;;;;0.52;0.52;;;14.90;99.90;;;;;;5063583;28;20162;-80
2021/09/12 04:39:21;;;;;;;0.00;0.00;;;15.10;99.90;;;;;;5046982;28;20162;-80
2021/09/12 04:41:47;;;;;;;0.35;0.35;;;15.10;99.90;;;;;;5047010;28;20256;-80
2021/09/12 04:44:13;;;;;;;0.10;0.10;;;15.10;99.90;;;;;;5046821;28;20237;-81
2021/09/12 04:46:42;;;;;;;0.50;0.50;;;15.10;99.90;;;;;;5063441;28;20165;-81
2021/09/12 04:49:08;;;;;;;0.20;0.20;;;15.00;99.90;;;;;;5049862;28;20216;-81
2021/09/12 04:51:34;;;;;;;0.63;0.63;;;15.10;99.90;;;;;;5050280;28;20207;-80
2021/09/12 04:54:00;;;;;;;0.38;0.38;;;14.70;99.90;;;;;;5067919;28;20248;-80
2021/09/12 04:56:26;;;;;;;0.13;0.13;;;14.70;99.90;;;;;;5068026;28;20614;-80
2021/09/12 04:58:52;;;;;;;1.75;0.63;;;14.80;99.90;;;;;;5049857;28;20168;-80
2021/09/12 05:01:18;;;;;;;0.15;0.15;;;15.00;99.90;;;;;;5067828;28;20176;-80
2021/09/12 05:03:44;;;;;;;0.80;0.40;;;14.80;99.90;;;;;;5049905;28;20192;-80
2021/09/12 05:06:10;;;;;;;1.20;0.75;;;14.70;99.90;;;;;;5050014;28;20172;-80
2021/09/12 05:08:36;;;;;;;1.48;1.38;;;14.70;99.90;;;;;;5067770;28;20156;-80
2021/09/12 05:11:03;;;;;;;2.50;1.23;;;14.60;99.90;;;;;;5067597;28;20219;-80
2021/09/12 05:13:30;;;;;;;1.27;0.93;;;14.70;99.90;;;;;;5067533;28;20193;-80
2021/09/12 05:15:56;;;;;;;0.60;0.60;;;14.90;99.90;;;;;;5067832;28;20172;-80
2021/09/12 05:18:22;;;;;;;0.30;0.30;;;15.30;99.90;;;;;;5050425;28;20248;-81
2021/09/12 05:20:48;;;;;;;0.20;0.20;;;15.70;99.90;;;;;;5072001;28;20164;-81
2021/09/12 05:23:15;;;;;;;1.05;0.95;;;16.30;99.90;;;;;;5053929;28;20164;-81
2021/09/12 05:25:41;;;;;;;1.05;1.05;;;16.80;99.90;;;;;;5071849;28;20179;-81
2021/09/12 05:28:07;;;;;;;1.13;0.93;;;17.20;99.90;;;;;;5071781;28;20165;-80
2021/09/12 05:30:33;;;;;;;1.15;1.10;;;17.20;99.90;;;;;;5053595;28;20214;-81
2021/09/12 05:32:59;;;;;;;1.23;1.23;;;17.40;99.90;;;;;;5053601;28;20199;-80
2021/09/12 05:35:25;;;;;;;3.22;1.13;;;17.20;99.90;;;;;;5053619;28;20176;-80
2021/09/12 05:37:51;;;;;;;1.75;1.25;;;17.20;99.90;;;;;;5071644;28;20162;-80
2021/09/12 05:40:17;;;;;;;0.60;0.60;;;17.20;99.90;;;;;;5053390;28;20225;-80
2021/09/12 05:42:43;;;;;;;0.88;0.88;;;17.40;99.90;;;;;;5053596;28;20195;-80
2021/09/12 05:45:09;;;;;;;0.20;0.20;;;17.30;99.90;;;;;;5053390;28;20196;-80
2021/09/12 05:47:35;;;;;;;1.92;1.02;;;17.80;99.90;;;;;;5053481;28;20542;-82
2021/09/12 05:50:03;;;;;;;1.33;1.20;;;18.00;99.90;;;;;;5049825;28;20229;-80
2021/09/12 05:52:29;;;;;;;2.03;1.92;;;18.20;99.90;;;;;;5051411;28;20173;-82
2021/09/12 05:54:55;;;;;;;0.55;0.55;;;18.30;99.90;;;;;;5051270;28;20257;-82
2021/09/12 05:57:21;;;;;;;0.90;0.90;;;18.20;99.90;;;;;;5051254;28;20168;-82
2021/09/12 05:59:47;;;;;;;1.75;0.20;;;18.10;99.90;;;;;;5049632;28;20166;-82
2021/09/12 06:02:13;;;;;;;0.68;0.68;;;17.70;99.90;;;;;;5066496;28;20177;-82
2021/09/12 06:04:39;;;;;;;0.80;0.80;;;17.40;99.90;;;;;;5049711;28;20192;-82
2021/09/12 06:07:05;;;;;;;0.73;0.73;;;17.10;99.90;;;;;;5051137;28;20166;-82
2021/09/12 06:09:31;;;;;;;1.90;1.02;;;16.80;99.90;;;;;;5051042;28;20164;-81
2021/09/12 06:11:57;;;;;;;1.00;1.00;;;16.80;99.90;;;;;;5049429;28;20529;-82
2021/09/12 06:14:23;;;;;;;2.17;0.70;;;16.70;99.90;;;;;;5049515;28;20197;-81
2021/09/12 06:16:49;;;;;;;0.98;0.82;;;16.90;99.90;;;;;;5050827;28;20153;-82
2021/09/12 06:19:15;;;;;;;1.05;1.05;;;16.90;99.90;;;;;;5049545;28;20260;-82
2021/09/12 06:21:41;;;;;;;1.17;0.60;;;17.10;99.90;;;;;;5050929;28;20235;-82
2021/09/12 06:24:07;;;;;;;1.88;1.15;;;17.20;99.90;;;;;;5050923;28;20256;-82
2021/09/12 06:26:33;;;;;;;0.32;0.32;;;17.30;99.90;;;;;;5054105;28;20164;-82
2021/09/12 06:28:58;;;;;;;2.42;1.90;;;17.50;99.90;;;;;;5069476;28;20223;-82
2021/09/12 06:31:26;;;;;;;0.98;0.95;;;17.50;99.90;;;;;;5048835;28;20541;-82
2021/09/12 06:33:53;;;;;;;0.95;0.95;;;17.90;99.90;;;;;;5049060;28;20193;-82
2021/09/12 06:36:19;;;;;;;0.65;0.65;;;18.30;99.90;;;;;;5049194;28;20311;-82
2021/09/12 06:38:46;;;;;;;1.33;1.08;;;19.10;99.90;;;;;;5048882;28;20349;-81
2021/09/12 06:41:12;;;;;;;0.75;0.75;;;19.60;99.90;;;;;;5048996;28;20173;-82
2021/09/12 06:43:38;;;;;;;0.82;0.80;;;20.20;99.90;;;;;;5048914;28;20236;-82
2021/09/12 06:46:04;;;;;;;0.82;0.82;;;20.80;99.90;;;;;;5050329;28;20162;-82
2021/09/12 06:48:30;;;;;;;0.38;0.38;;;21.80;99.90;;;;;;5048998;28;20193;-82
2021/09/12 06:50:57;;;;;;;1.00;0.98;;;21.90;99.90;;;;;;5048560;28;20236;-83
2021/09/12 06:53:24;;;;;;;2.08;0.98;;;21.90;99.90;;;;;;5065668;28;20331;-83
2021/09/12 06:55:50;;;;;;;3.15;1.75;;;21.80;99.90;;;;;;5048820;28;20191;-83
2021/09/12 06:58:17;;;;;;;1.90;0.82;;;22.00;99.90;;;;;;5050132;28;20157;-83
2021/09/12 07:00:43;;;;;;;0.10;0.10;;;22.10;99.90;;;;;;5050035;28;20195;-84
2021/09/12 07:03:09;;;;;;;1.50;1.40;;;21.40;99.90;;;;;;5048605;28;20165;-84
2021/09/12 07:05:35;;;;;;;0.63;0.63;;;21.60;99.90;;;;;;5050068;28;20224;-84
2021/09/12 07:08:01;;;;;;;4.22;1.95;;;22.00;99.90;;;;;;5050074;28;20679;-84
2021/09/12 07:10:27;;;;;;;0.55;0.55;;;22.40;99.90;;;;;;5049785;28;20626;-82
2021/09/12 07:12:53;;;;;;;1.33;0.90;;;23.10;99.90;;;;;;5048516;28;20518;-84
2021/09/12 07:15:19;;;;;;;1.13;1.10;;;23.80;99.90;;;;;;5049507;28;20682;-85
2021/09/12 07:17:45;;;;;;;1.10;0.98;;;24.10;99.90;;;;;;5048639;28;20175;-84
2021/09/12 07:20:12;;;;;;;3.00;1.05;;;24.60;99.90;;;;;;5049948;28;20165;-84
2021/09/12 07:22:38;;;;;;;0.93;0.93;;;25.20;99.90;;;;;;5064994;28;20175;-83
2021/09/12 07:25:05;;;;;;;1.23;0.70;;;26.00;99.90;;;;;;5048041;28;20268;-84
2021/09/12 07:27:31;;;;;;;1.05;1.05;;;25.10;99.90;;;;;;5048336;28;20624;-83
2021/09/12 07:29:57;;;;;;;0.90;0.90;;;25.30;99.90;;;;;;5048146;28;20306;-83
2021/09/12 07:32:23;;;;;;;1.77;1.55;;;24.30;99.90;;;;;;5049159;28;20153;-83
2021/09/12 07:34:49;;;;;;;1.08;1.00;;;25.10;99.90;;;;;;5047877;28;20195;-83
2021/09/12 07:37:15;;;;;;;1.30;1.20;;;25.90;99.90;;;;;;5049403;28;20161;-84
2021/09/12 07:39:41;;;;;;;1.00;0.93;;;26.20;99.90;;;;;;5047790;28;20195;-83
2021/09/12 07:42:07;;;;;;;0.75;0.75;;;26.30;99.90;;;;;;5048986;28;20161;-83
2021/09/12 07:44:32;;;;;;;1.73;1.35;;;25.80;99.90;;;;;;5048999;28;20192;-82
2021/09/12 07:46:58;;;;;;;1.27;1.17;;;26.30;99.90;;;;;;5047915;28;20195;-83
2021/09/12 07:49:24;;;;;;;0.80;0.80;;;25.90;99.90;;;;;;5054097;28;20242;-83
2021/09/12 07:51:50;;;;;;;2.88;1.30;;;25.60;99.90;;;;;;5050794;28;20214;-83
2021/09/12 07:54:16;;;;;;;0.98;0.93;;;26.10;99.90;;;;;;5050994;28;20212;-83
2021/09/12 07:56:42;;;;;;;0.57;0.57;;;27.50;99.90;;;;;;5068976;28;20166;-83
2021/09/12 07:59:08;;;;;;;0.77;0.77;;;27.20;99.90;;;;;;5050850;28;20188;-84
2021/09/12 08:01:35;;;;;;;2.17;1.25;;;27.10;99.90;;;;;;5050795;28;20168;-83
2021/09/12 08:04:00;;;;;;;3.05;1.08;;;25.90;99.90;;;;;;5050634;28;20206;-83
2021/09/12 08:06:26;;;;;;;1.70;1.55;;;25.60;99.90;;;;;;5068796;28;20212;-83
2021/09/12 08:08:52;;;;;;;0.73;0.73;;;26.40;99.90;;;;;;5068513;28;20201;-85
2021/09/12 08:11:18;;;;;;;1.90;1.10;;;26.60;99.90;;;;;;5068288;28;20188;-83
2021/09/12 08:13:44;;;;;;;1.23;0.98;;;25.80;99.90;;;;;;5050507;28;20195;-83
2021/09/12 08:16:10;;;;;;;1.65;1.45;;;26.20;99.90;;;;;;5068637;28;20156;-84
2021/09/12 08:18:36;;;;;;;0.50;0.50;;;26.90;99.90;;;;;;5068560;28;20179;-83
2021/09/12 08:21:03;;;;;;;1.08;1.08;;;27.50;99.90;;;;;;5068597;28;20160;-84
2021/09/12 08:23:29;;;;;;;1.80;0.93;;;28.20;99.90;;;;;;5068180;28;20294;-83
2021/09/12 08:25:56;;;;;;;1.02;0.68;;;28.10;99.90;;;;;;5050413;28;20779;-83
2021/09/12 08:28:22;;;;;;;2.67;1.05;;;27.50;99.90;;;;;;5068395;28;20160;-83
2021/09/12 08:30:47;;;;;;;4.78;1.63;;;28.00;99.90;;;;;;5068189;28;20217;-84
2021/09/12 08:33:15;;;;;;;6.03;1.30;;;28.30;99.90;;;;;;5050289;28;20165;-83
2021/09/12 08:35:43;;;;;;;0.90;0.90;;;27.80;99.90;;;;;;5068037;28;20152;-83
2021/09/12 08:38:11;;;;;;;0.93;0.88;;;28.30;99.90;;;;;;5068260;28;20183;-84
2021/09/12 08:40:37;;;;;;;0.77;0.77;;;27.90;99.90;;;;;;5068239;28;20160;-84
2021/09/12 08:43:05;;;;;;;0.25;0.25;;;27.70;99.90;;;;;;5050013;28;20168;-85
2021/09/12 08:45:31;;;;;;;1.00;0.90;;;28.20;99.90;;;;;;5050033;28;20252;-85
2021/09/12 08:47:57;;;;;;;2.53;1.15;;;29.00;99.90;;;;;;5050056;28;20168;-84
2021/09/12 08:50:23;;;;;;;1.23;1.08;;;29.30;99.90;;;;;;5067815;28;20295;-86
2021/09/12 08:52:49;;;;;;;3.67;1.35;;;29.60;99.10;;;;;;5067738;28;20641;-84
2021/09/12 08:55:15;;;;;;;1.83;1.15;;;28.30;99.90;;;;;;5050024;28;20196;-84
2021/09/12 08:57:47;;;;;;;0.57;0.57;;;28.70;99.30;;;;;;5050101;28;20176;-84
2021/09/12 09:00:19;;;;;;;1.33;1.23;;;29.90;99.80;;;;;;5067736;28;20163;-82
2021/09/12 09:02:46;;;;;;;1.30;1.20;;;27.90;99.90;;;;;;5067983;28;20152;-84
2021/09/12 09:05:12;;;;;;;0.90;0.90;;;27.30;99.90;;;;;;5067717;28;20211;-83
2021/09/12 09:07:38;;;;;;;2.63;1.25;;;27.40;99.90;;;;;;5049802;28;20488;-82
2021/09/12 09:10:19;;;;;;;3.97;1.30;;;27.20;99.90;;;;;;5065003;28;20198;-82
2021/09/12 09:12:45;;;;;;;0.98;0.90;;;26.80;99.90;;;;;;5056340;28;20164;-83
2021/09/12 09:15:12;;;;;;;1.50;1.40;;;26.90;99.90;;;;;;5040827;28;20203;-83
2021/09/12 09:17:42;;;;;;;1.98;1.25;;;26.90;99.90;;;;;;5067618;28;20172;-81
2021/09/12 09:20:11;;;;;;;2.13;0.98;;;26.90;99.90;;;;;;5050887;28;20181;-82
2021/09/12 09:22:48;;;;;;;0.75;0.68;;;26.90;99.90;;;;;;5047732;28;20212;-82
2021/09/12 09:25:17;;;;;;;0.90;0.88;;;26.80;99.90;;;;;;5046579;28;20303;-83
2021/09/12 09:28:00;;;;;;;1.40;1.00;;;26.40;99.90;;;;;;5057687;28;20156;-83
2021/09/12 09:30:29;;;;;;;0.73;0.68;;;27.00;99.90;;;;;;5068491;28;20206;-82
2021/09/12 09:33:22;;;;;;;1.90;1.27;;;26.20;99.90;;;;;;5050939;28;20168;-84
2021/09/12 09:35:57;;;;;;;1.02;0.98;;;27.50;99.90;;;;;;5068969;28;20164;-83
2021/09/12 09:38:31;;;;;;;0.47;0.47;;;26.90;99.90;;;;;;5068127;28;20172;-83
2021/09/12 09:41:13;;;;;;;0.88;0.88;;;26.80;99.90;;;;;;5068955;28;20570;-82
2021/09/12 09:43:43;;;;;;;9.75;1.02;;;26.80;99.90;;;;;;5068277;28;20188;-82
2021/09/12 09:46:54;;;;;;;0.95;0.77;;;27.30;99.90;;;;;;5030678;28;20177;-82
2021/09/12 09:49:28;;;;;;;1.00;0.90;;;27.40;99.90;;;;;;5024175;28;20689;-82
2021/09/12 09:52:00;;;;;;;1.85;1.40;;;27.30;99.90;;;;;;5042970;28;20223;-81
2021/09/12 09:54:31;;;;;;;1.30;0.75;;;27.40;99.90;;;;;;5027723;28;20196;-82
2021/09/12 09:56:58;;;;;;;3.25;1.45;;;27.60;99.90;;;;;;5027805;28;20161;-81
2021/09/12 09:59:26;;;;;;;6.47;0.90;;;27.60;99.90;;;;;;5026599;28;20162;-83
2021/09/12 10:01:55;;;;;;;1.15;1.10;;;27.10;99.90;;;;;;5030954;28;20154;-83
2021/09/12 10:04:26;;;;;;;1.25;1.15;;;28.00;99.90;;;;;;5046838;28;20208;-85
2021/09/12 10:06:53;;;;;;;1.55;1.13;;;28.00;99.90;;;;;;5035189;28;20174;-83
2021/09/12 10:09:20;;;;;;;1.17;1.08;;;28.20;99.90;;;;;;5050384;28;20166;-84
2021/09/12 10:11:55;;;;;;;0.85;0.85;;;28.30;99.90;;;;;;5041674;28;20234;-83
2021/09/12 10:14:28;;;;;;;0.63;0.63;;;28.40;99.90;;;;;;5053967;28;20185;-84
2021/09/12 10:16:57;;;;;;;0.75;0.75;;;29.20;98.40;;;;;;5053297;28;20167;-84
2021/09/12 10:19:33;;;;;;;1.05;1.02;;;29.50;99.90;;;;;;5053209;28;20164;-85
2021/09/12 10:22:07;;;;;;;1.40;0.73;;;28.60;98.80;;;;;;5053399;28;20165;-83
2021/09/12 10:24:33;;;;;;;1.35;1.25;;;28.70;98.60;;;;;;5052003;28;20192;-82
2021/09/12 10:27:15;;;;;;;1.15;1.05;;;28.30;98.30;;;;;;5050911;28;20155;-83
2021/09/12 10:29:54;;;;;;;0.98;0.73;;;27.70;99.40;;;;;;5049817;28;20226;-84
2021/09/12 10:32:32;;;;;;;1.25;0.95;;;28.30;99.80;;;;;;5050045;28;20173;-83
2021/09/12 10:35:26;;;;;;;1.17;0.95;;;28.70;99.90;;;;;;5050721;28;20192;-82
2021/09/12 10:37:58;;;;;;;0.73;0.73;;;28.50;99.90;;;;;;5032704;28;20275;-84
2021/09/12 10:40:45;;;;;;;0.57;0.57;;;29.10;97.50;;;;;;5050618;28;20176;-82
2021/09/12 10:43:31;;;;;;;6.00;2.33;;;28.30;98.00;;;;;;5050666;28;20176;-83
2021/09/12 10:46:05;;;;;;;0.45;0.45;;;28.50;98.10;;;;;;5049177;28;20192;-84
2021/09/12 10:48:41;;;;;;;1.10;1.00;;;29.10;97.40;;;;;;5050593;28;20206;-84
2021/09/12 10:51:11;;;;;;;1.55;1.45;;;28.70;98.40;;;;;;5069695;28;20266;-84
2021/09/12 10:53:46;;;;;;;1.15;1.08;;;29.50;98.90;;;;;;5052240;28;20203;-85
2021/09/12 10:56:18;;;;;;;0.75;0.75;;;31.00;97.30;;;;;;5052118;28;20175;-84
2021/09/12 10:58:45;;;;;;;1.42;1.33;;;31.90;96.30;;;;;;5052203;28;20172;-83
2021/09/12 11:01:30;;;;;;;1.48;0.98;;;32.30;94.10;;;;;;5070241;28;20164;-83
2021/09/12 11:03:58;;;;;;;1.05;0.88;;;31.50;94.40;;;;;;5052168;28;20246;-84
2021/09/12 11:06:30;;;;;;;1.05;1.00;;;30.70;94.90;;;;;;5069898;28;20183;-84
2021/09/12 11:08:57;;;;;;;0.90;0.90;;;30.60;95.70;;;;;;5069891;28;20282;-85
2021/09/12 11:11:25;;;;;;;0.85;0.80;;;30.70;95.60;;;;;;5051803;28;20218;-86
2021/09/12 11:13:52;;;;;;;1.40;1.30;;;31.30;95.10;;;;;;5069722;28;20582;-84
2021/09/12 11:16:21;;;;;;;0.57;0.57;;;30.80;96.50;;;;;;5069151;28;20175;-85
2021/09/12 11:18:53;;;;;;;7.80;1.35;;;31.50;95.60;;;;;;5048287;28;20245;-85
2021/09/12 11:21:26;;;;;;;1.55;0.70;;;32.10;93.90;;;;;;5069692;28;20236;-84
2021/09/12 11:24:01;;;;;;;1.13;1.05;;;32.50;92.60;;;;;;5069655;28;20187;-85
2021/09/12 11:26:36;;;;;;;0.85;0.82;;;31.70;93.90;;;;;;5070459;28;20190;-84
2021/09/12 11:29:04;;;;;;;1.00;0.90;;;32.20;95.50;;;;;;5051921;28;20170;-85
2021/09/12 11:31:32;;;;;;;0.70;0.70;;;32.90;94.30;;;;;;5069451;28;20191;-84
2021/09/12 11:33:58;;;;;;;3.05;1.67;;;30.80;93.90;;;;;;5069360;28;20180;-86
2021/09/12 11:36:24;;;;;;;0.40;0.40;;;30.70;96.40;;;;;;5051423;28;20188;-85
2021/09/12 11:38:58;;;;;;;1.15;0.88;;;31.80;94.30;;;;;;5069310;28;20180;-85
2021/09/12 11:41:27;;;;;;;2.20;1.00;;;32.40;93.30;;;;;;5051305;28;20190;-85
2021/09/12 11:43:58;;;;;;;2.47;1.70;;;32.40;94.20;;;;;;5050983;28;20199;-83
2021/09/12 11:46:25;;;;;;;0.75;0.75;;;30.90;94.50;;;;;;5069263;28;20474;-82
2021/09/12 11:48:59;;;;;;;0.82;0.65;;;30.00;94.80;;;;;;5068967;28;20156;-84
2021/09/12 11:51:49;;;;;;;1.20;1.10;;;29.80;96.20;;;;;;5051095;28;20199;-84
2021/09/12 11:54:24;;;;;;;0.85;0.85;;;31.60;95.00;;;;;;5040874;28;20257;-85
2021/09/12 11:57:10;;;;;;;1.10;0.95;;;30.90;95.00;;;;;;5050790;28;20178;-83
2021/09/12 11:59:49;;;;;;;1.23;0.68;;;31.10;96.00;;;;;;5068910;28;20179;-82
2021/09/12 12:02:26;;;;;;;0.73;0.40;;;31.50;93.80;;;;;;5052998;28;20200;-83
2021/09/12 12:04:54;;;;;;;0.88;0.60;;;31.00;95.80;;;;;;5072070;28;20339;-79
2021/09/12 12:07:40;;;;;;;1.67;0.98;;;30.50;94.60;;;;;;5052892;28;20172;-81
2021/09/12 12:10:07;;;;;;;2.05;0.82;;;28.60;97.50;;;;;;5050468;28;20354;-82
2021/09/12 12:12:37;;;;;;;2.08;1.50;;;28.30;97.70;;;;;;5051235;28;20217;-82
2021/09/12 12:15:07;;;;;;;0.90;0.88;;;27.40;97.20;;;;;;5070078;28;20188;-83
2021/09/12 12:17:34;;;;;;;2.08;1.73;;;26.80;98.60;;;;;;5069621;28;20494;-82
2021/09/12 12:20:00;;;;;;;0.90;0.90;;;26.40;98.80;;;;;;5050182;28;20206;-81
2021/09/12 12:22:37;;;;;;;1.52;1.00;;;26.60;99.30;;;;;;5050504;28;20164;-83
2021/09/12 12:25:05;;;;;;;0.73;0.73;;;27.30;98.80;;;;;;5068306;28;20202;-83
2021/09/12 12:27:39;;;;;;;1.10;0.63;;;27.80;97.50;;;;;;5068065;28;20160;-83
2021/09/12 12:30:07;;;;;;;1.20;0.75;;;28.10;97.40;;;;;;5067872;28;20164;-84
2021/09/12 12:32:37;;;;;;;1.35;0.80;;;28.00;98.10;;;;;;5050319;28;20160;-84
2021/09/12 12:35:18;;;;;;;1.50;1.05;;;27.80;98.10;;;;;;5068082;28;20258;-84
2021/09/12 12:37:46;;;;;;;0.80;0.75;;;27.50;96.70;;;;;;5050211;28;20164;-84
2021/09/12 12:40:21;;;;;;;0.73;0.50;;;27.60;97.10;;;;;;5068438;28;20167;-84
2021/09/12 12:42:50;;;;;;;2.00;0.77;;;27.70;96.20;;;;;;5068259;28;20183;-84
2021/09/12 12:45:21;;;;;;;1.70;1.50;;;27.90;96.60;;;;;;5068015;28;20187;-84
2021/09/12 12:47:49;;;;;;;0.50;0.50;;;27.20;97.40;;;;;;5068111;28;20171;-82
2021/09/12 12:50:36;;;;;;;2.10;1.08;;;26.60;97.90;;;;;;5049790;28;20224;-84
2021/09/12 12:53:14;;;;;;;0.47;0.40;;;26.40;98.20;;;;;;5067980;28;20171;-83